KMLB/MLB METAR and TAF weather

Enter ICAO airport designator
Station Type Date Time Source
KMLB METAR 2021/02/27 02:53 UTC NOAA

KMLB 270253Z 12005KT 10SM CLR 22/19 A3017 RMK AO2 SLP215 T02220189 51005


Station Type Date Time Source
KMLB Decoded METAR 2021/02/27 02:53 UTC NOAA

MELBOURNE INTERNATIONAL, FL, United States (KMLB) 28-06N 080-39W 10M
Feb 26, 2021 - 09:53 PM EST / 2021.02.27 0253 UTC
Wind: from the ESE (120 degrees) at 6 MPH (5 KT):0
Visibility: 10 mile(s):0
Sky conditions: clear
Temperature: 72.0 F (22.2 C)
Dew Point: 66.0 F (18.9 C)
Relative Humidity: 81%
Pressure (altimeter): 30.17 in. Hg (1021 hPa)
Pressure tendency: 0.01 inches (0.5 hPa) higher than three hours ago
ob: KMLB 270253Z 12005KT 10SM CLR 22/19 A3017 RMK AO2 SLP215 T02220189 51005
cycle: 3

Station Type Date Time Source
KMLB TAF 2021/02/26 18:39 UTC NOAA

TAF KMLB 261737Z 2618/2718 08011KT P6SM FEW040
FM270100 VRB05KT P6SM FEW020 FEW050
FM271400 14009KT P6SM SCT030 SCT250

Example: see airport list